KJGG

Details ICAO KJGG
Name WILLIAMSBURG JAMESTOWN
Region United States
Timezone America/New_York (UTC-4.0)
Plans Departing 16
Arriving 15
Stats Elevation 49 ft / 15 m (AMSL)
Location 37.239171° -76.716091°
Runways 1
Magnetic Variation 10.689° W
Sunrise 2018-05-22 09:54:35 UTC / 2018-05-22 05:54:35 Local
Sunset 2018-05-23 00:15:22 UTC / 2018-05-22 20:15:22 Local
Advertisement - Login to hide

Runways

ID Width Length Bearing (true) Bearing (mag) Surface Threshold Offset Overrun Length
13 60 ft / 18 m 3,201 ft / 976 m 120.46° 131.15° Asphalt 0 ft / 0 m 0 ft / 0 m
31 60 ft / 18 m 3,201 ft / 976 m 300.47° 311.16° Asphalt 0 ft / 0 m 0 ft / 0 m

Map

Weather


0- 5 10 15 20 25 30 35+ Temperature / ° C

Clouds and Precipitation
Forecast for 2018-05-22 18:00 UTC. Updated 4 hours ago

Ground ~20,000 ft ~40,000 ft Winds

METAR

KJGG 222035Z AUTO 20005KT 10SM CLR 30/20 A3001 RMK AO1

TAF

Not found

Frequencies

Recorded 120.62 MHz AWOS 3
Approach 119.45 MHz NORFOLK APP/DEP
Unicom 122.80 MHz CTAF/UNICOM
Warning: Do not use this data for real-world aviation or navigation. No guarantee of current accuracy is given.